Time;durP1;ratioP1;P1;durP2;ratioP2;P2;SDS_P1;SDS_P2;PMS_P1;PMS_P2;Temp;Humidity;BMP_temperature;BMP_pressure;BME280_temperature;BME280_humidity;BME280_pressure;Samples;Min_cycle;Max_cycle;Signal;HPM_P1;HPM_P2
2022/01/27 00:05:18;;;;;;;;;;;16.00;45.50;;;;;;5099745;28;19923;-62
2022/01/27 00:07:44;;;;;;;;;;;16.00;45.40;;;;;;5092425;28;19908;-62
2022/01/27 00:13:12;;;;;;;;;;;16.00;45.50;;;;;;5069635;28;19916;-62
2022/01/27 00:15:39;;;;;;;;;;;16.00;45.50;;;;;;5092752;28;19909;-61
2022/01/27 00:18:12;;;;;;;;;;;16.00;45.50;;;;;;5092519;28;19939;-62
2022/01/27 00:20:37;;;;;;;;;;;16.00;45.50;;;;;;5093810;28;19920;-62
2022/01/27 00:23:03;;;;;;;;;;;16.00;45.50;;;;;;5092616;28;20373;-62
2022/01/27 00:25:28;;;;;;;;;;;16.00;45.60;;;;;;5092001;28;20316;-62
2022/01/27 00:27:54;;;;;;;;;;;15.90;45.50;;;;;;5092330;28;20364;-62
2022/01/27 00:30:19;;;;;;;;;;;16.00;45.50;;;;;;5092334;28;19916;-62
2022/01/27 00:32:45;;;;;;;;;;;16.00;45.60;;;;;;5092280;28;20330;-62
2022/01/27 00:35:10;;;;;;;;;;;15.90;45.50;;;;;;5092239;28;20007;-62
2022/01/27 00:37:36;;;;;;;;;;;15.90;45.50;;;;;;5092648;28;19912;-62
2022/01/27 00:40:02;;;;;;;;;;;15.90;45.50;;;;;;5124930;28;19915;-62
2022/01/27 00:42:28;;;;;;;;;;;15.90;45.60;;;;;;5091080;28;20309;-64
2022/01/27 00:44:55;;;;;;;;;;;15.90;45.60;;;;;;5092471;28;20332;-64
2022/01/27 00:47:20;;;;;;;;;;;15.90;45.70;;;;;;5092456;28;20475;-64
2022/01/27 00:49:45;;;;;;;;;;;15.90;45.60;;;;;;5092149;28;19908;-63
2022/01/27 00:52:15;;;;;;;;;;;15.90;45.60;;;;;;5092252;28;19930;-62
2022/01/27 00:54:42;;;;;;;;;;;15.90;45.60;;;;;;5091704;28;19915;-62
2022/01/27 00:59:53;;;;;;;;;;;16.00;45.60;;;;;;5092560;28;19908;-62
2022/01/27 01:02:49;;;;;;;;;;;16.00;45.60;;;;;;5092076;28;20399;-62
2022/01/27 01:07:53;;;;;;;;;;;15.90;45.60;;;;;;5098929;28;20364;-62
2022/01/27 01:15:33;;;;;;;;;;;15.90;45.70;;;;;;5092513;28;19924;-62
2022/01/27 01:20:33;;;;;;;;;;;15.90;45.70;;;;;;5094017;28;19992;-62
2022/01/27 01:33:56;;;;;;;;;;;15.90;45.80;;;;;;5075664;28;20357;-62
2022/01/27 01:36:35;;;;;;;;;;;15.90;45.80;;;;;;5082111;28;19935;-62
2022/01/27 01:39:00;;;;;;;;;;;15.80;46.40;;;;;;5073391;28;19960;-62
2022/01/27 01:41:26;;;;;;;;;;;15.80;45.90;;;;;;5074027;28;20320;-62
2022/01/27 01:43:51;;;;;;;;;;;15.80;45.90;;;;;;5075061;28;19909;-62
2022/01/27 01:46:17;;;;;;;;;;;15.80;45.90;;;;;;5075127;28;19938;-62
2022/01/27 01:48:42;;;;;;;;;;;15.80;45.90;;;;;;5074976;28;19909;-62
2022/01/27 01:51:07;;;;;;;;;;;15.80;45.90;;;;;;5073845;28;20265;-62
2022/01/27 01:53:33;;;;;;;;;;;15.80;45.80;;;;;;5073331;28;19916;-62
2022/01/27 01:55:58;;;;;;;;;;;15.90;45.90;;;;;;5074884;28;20246;-62
2022/01/27 01:58:24;;;;;;;;;;;15.90;45.90;;;;;;5092509;28;19922;-62
2022/01/27 02:00:49;;;;;;;;;;;15.90;45.90;;;;;;5095006;28;19931;-62
2022/01/27 02:03:15;;;;;;;;;;;15.80;45.80;;;;;;5094984;28;19916;-62
2022/01/27 02:05:46;;;;;;;;;;;15.90;45.90;;;;;;5093964;28;19908;-62
2022/01/27 02:08:30;;;;;;;;;;;15.80;45.80;;;;;;5094081;28;20289;-62
2022/01/27 02:19:12;;;;;;;;;;;15.80;45.90;;;;;;5094522;28;20391;-62
2022/01/27 02:21:47;;;;;;;;;;;15.80;46.00;;;;;;5093489;28;19908;-62
2022/01/27 02:24:13;;;;;;;;;;;15.80;46.10;;;;;;5093019;28;19908;-62
2022/01/27 02:26:39;;;;;;;;;;;15.80;46.00;;;;;;5093362;28;19918;-62
2022/01/27 02:29:04;;;;;;;;;;;15.80;46.00;;;;;;5093213;28;20386;-62
2022/01/27 02:31:30;;;;;;;;;;;15.90;45.90;;;;;;5092649;28;19908;-62
2022/01/27 02:33:56;;;;;;;;;;;15.90;45.70;;;;;;5094630;28;19908;-62
2022/01/27 02:36:22;;;;;;;;;;;16.00;45.70;;;;;;5093167;28;19951;-62
2022/01/27 02:38:47;;;;;;;;;;;16.00;45.50;;;;;;5093732;28;19981;-62
2022/01/27 02:41:13;;;;;;;;;;;16.10;45.40;;;;;;5126960;27;19912;-62
2022/01/27 02:43:38;;;;;;;;;;;16.20;45.40;;;;;;5092777;28;19912;-62
2022/01/27 02:46:06;;;;;;;;;;;16.20;45.20;;;;;;5094581;28;19995;-62
2022/01/27 02:48:31;;;;;;;;;;;16.30;45.10;;;;;;5092724;28;19908;-62
2022/01/27 02:50:57;;;;;;;;;;;16.30;45.00;;;;;;5094193;28;19908;-62
2022/01/27 02:53:22;;;;;;;;;;;16.40;44.90;;;;;;5093985;28;19927;-62
2022/01/27 02:55:48;;;;;;;;;;;16.50;44.90;;;;;;5092286;28;19919;-62
2022/01/27 02:58:15;;;;;;;;;;;16.50;44.70;;;;;;5093906;28;19916;-62
2022/01/27 03:00:40;;;;;;;;;;;16.50;44.70;;;;;;5093766;28;20008;-62
2022/01/27 03:03:06;;;;;;;;;;;16.60;44.60;;;;;;5093840;28;19977;-62
2022/01/27 03:05:31;;;;;;;;;;;16.60;44.50;;;;;;5093594;28;19915;-63
2022/01/27 03:07:57;;;;;;;;;;;16.60;44.50;;;;;;5093708;28;19963;-63
2022/01/27 03:10:22;;;;;;;;;;;16.60;44.50;;;;;;5093427;28;20257;-63
2022/01/27 03:12:48;;;;;;;;;;;16.60;44.40;;;;;;5109285;28;20016;-63
2022/01/27 03:15:14;;;;;;;;;;;16.60;44.40;;;;;;5093625;28;19912;-63
2022/01/27 03:17:40;;;;;;;;;;;16.70;44.40;;;;;;5092323;28;19923;-63
2022/01/27 03:20:06;;;;;;;;;;;16.70;44.50;;;;;;5093306;28;19920;-63
2022/01/27 03:22:31;;;;;;;;;;;16.60;44.30;;;;;;5092336;28;20450;-63
2022/01/27 03:24:57;;;;;;;;;;;16.70;44.40;;;;;;5092934;28;19908;-63
2022/01/27 03:27:25;;;;;;;;;;;16.70;44.30;;;;;;5093310;28;19912;-63
2022/01/27 03:29:51;;;;;;;;;;;16.70;44.30;;;;;;5093260;28;19966;-63
2022/01/27 03:32:16;;;;;;;;;;;16.70;44.30;;;;;;5093370;28;19912;-63
2022/01/27 03:34:41;;;;;;;;;;;16.70;44.30;;;;;;5093134;28;19908;-63
2022/01/27 03:37:07;;;;;;;;;;;16.70;44.30;;;;;;5093064;28;19919;-63
2022/01/27 03:39:35;;;;;;;;;;;16.70;44.20;;;;;;5091300;28;19909;-63
2022/01/27 03:42:01;;;;;;;;;;;16.70;44.10;;;;;;5091880;28;20024;-63
2022/01/27 03:44:28;;;;;;;;;;;16.70;44.10;;;;;;5092198;28;19947;-62
2022/01/27 03:46:55;;;;;;;;;;;16.70;44.00;;;;;;5093289;28;19947;-62
2022/01/27 03:49:20;;;;;;;;;;;16.80;44.10;;;;;;5093164;28;19909;-62
2022/01/27 03:51:46;;;;;;;;;;;16.70;44.00;;;;;;5091685;28;19931;-62
2022/01/27 03:54:11;;;;;;;;;;;16.70;44.00;;;;;;5092506;28;19908;-62
2022/01/27 03:56:37;;;;;;;;;;;16.70;44.00;;;;;;5093099;28;20233;-62
2022/01/27 03:59:02;;;;;;;;;;;16.80;44.10;;;;;;5092677;28;19912;-62
2022/01/27 04:01:29;;;;;;;;;;;16.80;44.10;;;;;;5091514;28;19977;-62
2022/01/27 04:03:57;;;;;;;;;;;16.70;44.20;;;;;;5092674;28;19912;-62
2022/01/27 04:06:32;;;;;;;;;;;16.60;44.30;;;;;;5092823;28;19995;-62
2022/01/27 04:08:57;;;;;;;;;;;16.60;44.40;;;;;;5097990;28;19908;-62
2022/01/27 04:11:22;;;;;;;;;;;16.60;44.50;;;;;;5092719;28;20837;-61
2022/01/27 04:13:48;;;;;;;;;;;16.60;44.50;;;;;;5092409;28;20421;-62
2022/01/27 04:16:13;;;;;;;;;;;16.60;44.50;;;;;;5092543;28;19926;-62
2022/01/27 04:18:39;;;;;;;;;;;16.60;44.50;;;;;;5092183;28;19917;-62
2022/01/27 04:21:04;;;;;;;;;;;16.60;44.40;;;;;;5092327;28;20433;-62
2022/01/27 04:23:30;;;;;;;;;;;16.60;44.30;;;;;;5091875;28;20377;-62
2022/01/27 04:25:55;;;;;;;;;;;16.70;44.30;;;;;;5092369;28;20276;-62
2022/01/27 04:28:29;;;;;;;;;;;16.70;44.30;;;;;;5092252;28;20049;-62
2022/01/27 04:30:56;;;;;;;;;;;16.70;44.30;;;;;;5099118;28;19916;-62
2022/01/27 04:33:28;;;;;;;;;;;16.70;44.30;;;;;;5091074;28;19979;-62
2022/01/27 04:35:57;;;;;;;;;;;16.70;44.30;;;;;;5099126;28;19912;-62
2022/01/27 04:38:38;;;;;;;;;;;16.70;44.30;;;;;;5090760;28;20311;-62
2022/01/27 04:41:12;;;;;;;;;;;16.70;44.30;;;;;;5090938;28;20002;-62
2022/01/27 04:48:55;;;;;;;;;;;16.70;44.20;;;;;;5091940;28;20351;-62
2022/01/27 04:51:23;;;;;;;;;;;16.80;44.20;;;;;;5092160;28;19998;-62
2022/01/27 04:56:28;;;;;;;;;;;16.80;44.10;;;;;;5103139;28;19996;-62
2022/01/27 04:58:58;;;;;;;;;;;16.70;44.10;;;;;;5094816;28;19920;-62
2022/01/27 05:01:39;;;;;;;;;;;16.80;44.10;;;;;;5103013;28;19912;-62
2022/01/27 05:04:12;;;;;;;;;;;16.70;44.10;;;;;;5079908;28;20325;-62
2022/01/27 05:06:38;;;;;;;;;;;16.70;44.10;;;;;;5102854;28;20396;-62
2022/01/27 05:09:04;;;;;;;;;;;16.70;44.10;;;;;;5095494;28;20006;-62
2022/01/27 05:11:33;;;;;;;;;;;16.80;44.10;;;;;;5094991;28;20000;-62
2022/01/27 05:14:13;;;;;;;;;;;16.80;44.10;;;;;;5094719;28;20057;-62
2022/01/27 05:16:38;;;;;;;;;;;16.80;44.10;;;;;;5095929;28;20375;-62
2022/01/27 05:19:04;;;;;;;;;;;16.80;44.00;;;;;;5095207;28;19922;-62
2022/01/27 05:21:30;;;;;;;;;;;16.80;44.00;;;;;;5095737;28;19912;-62
2022/01/27 05:23:55;;;;;;;;;;;16.80;44.10;;;;;;5095179;28;20299;-62
2022/01/27 05:26:21;;;;;;;;;;;16.80;44.00;;;;;;5077247;28;19915;-62
2022/01/27 05:28:46;;;;;;;;;;;16.80;44.00;;;;;;5095519;28;19957;-62
2022/01/27 05:31:11;;;;;;;;;;;16.80;44.00;;;;;;5094217;28;19999;-62
2022/01/27 05:33:37;;;;;;;;;;;16.80;44.00;;;;;;5077122;28;19915;-62
2022/01/27 05:36:03;;;;;;;;;;;16.80;44.00;;;;;;5128314;27;19931;-62
2022/01/27 05:38:28;;;;;;;;;;;16.80;44.00;;;;;;5127878;27;19946;-63
2022/01/27 05:40:53;;;;;;;;;;;16.80;44.00;;;;;;5095228;28;19935;-63
2022/01/27 05:43:19;;;;;;;;;;;16.80;43.90;;;;;;5095302;28;20015;-62
2022/01/27 05:45:44;;;;;;;;;;;16.80;44.00;;;;;;5095108;28;20006;-62
2022/01/27 05:48:10;;;;;;;;;;;16.80;44.00;;;;;;5095163;28;19973;-62
2022/01/27 05:50:35;;;;;;;;;;;16.90;44.10;;;;;;5093812;28;20344;-62
2022/01/27 05:53:01;;;;;;;;;;;16.80;43.90;;;;;;5128048;27;19908;-63
2022/01/27 05:55:26;;;;;;;;;;;16.80;43.90;;;;;;5094616;28;19987;-63
2022/01/27 05:57:52;;;;;;;;;;;16.80;43.90;;;;;;5110572;28;19934;-63
2022/01/27 06:00:17;;;;;;;;;;;16.80;43.90;;;;;;5094988;28;20287;-62
2022/01/27 06:02:43;;;;;;;;;;;16.80;43.90;;;;;;5095180;28;19958;-63
2022/01/27 06:05:09;;;;;;;;;;;16.90;44.10;;;;;;5094895;28;19951;-63
2022/01/27 06:07:34;;;;;;;;;;;16.80;44.00;;;;;;5093684;28;19908;-63
2022/01/27 06:09:59;;;;;;;;;;;16.80;44.10;;;;;;5094182;28;19929;-63
2022/01/27 06:12:25;;;;;;;;;;;16.80;44.10;;;;;;5094822;28;19908;-63
2022/01/27 06:14:50;;;;;;;;;;;16.80;44.10;;;;;;5076433;28;20283;-63
2022/01/27 06:17:16;;;;;;;;;;;16.80;44.10;;;;;;5093395;28;19912;-63
2022/01/27 06:19:46;;;;;;;;;;;16.80;44.10;;;;;;5093063;28;20395;-63
2022/01/27 06:22:11;;;;;;;;;;;16.90;44.20;;;;;;5094544;28;19908;-63
2022/01/27 06:24:43;;;;;;;;;;;16.80;44.00;;;;;;5094308;28;19909;-63
2022/01/27 06:27:09;;;;;;;;;;;16.80;44.00;;;;;;5094289;28;20292;-63
2022/01/27 06:29:35;;;;;;;;;;;16.80;44.00;;;;;;5094201;28;19957;-63
2022/01/27 06:32:01;;;;;;;;;;;16.80;44.10;;;;;;5093196;28;19908;-63
2022/01/27 06:34:26;;;;;;;;;;;16.80;44.10;;;;;;5093060;28;19977;-63
2022/01/27 06:36:52;;;;;;;;;;;16.80;44.00;;;;;;5093028;28;19965;-63
2022/01/27 06:39:17;;;;;;;;;;;16.80;44.00;;;;;;5093753;28;19953;-62
2022/01/27 06:41:43;;;;;;;;;;;16.80;44.00;;;;;;5094243;28;19931;-62
2022/01/27 06:44:09;;;;;;;;;;;16.80;44.00;;;;;;5094010;28;20355;-63
2022/01/27 06:46:35;;;;;;;;;;;16.80;44.00;;;;;;5093977;28;19983;-63
2022/01/27 06:49:04;;;;;;;;;;;16.80;43.90;;;;;;5094244;28;19916;-63
2022/01/27 06:51:29;;;;;;;;;;;16.80;43.90;;;;;;5094080;28;19912;-63
2022/01/27 06:53:55;;;;;;;;;;;16.90;44.10;;;;;;5093412;28;19912;-62
2022/01/27 06:56:20;;;;;;;;;;;16.80;43.90;;;;;;5093847;28;19957;-62
2022/01/27 06:58:46;;;;;;;;;;;16.80;43.90;;;;;;5093682;28;20367;-62
2022/01/27 07:01:11;;;;;;;;;;;16.80;43.90;;;;;;5126610;27;19908;-62
2022/01/27 07:03:37;;;;;;;;;;;16.90;44.00;;;;;;5092331;28;20386;-62
2022/01/27 07:06:02;;;;;;;;;;;16.90;44.00;;;;;;5093578;28;19931;-62
2022/01/27 07:08:28;;;;;;;;;;;16.90;43.90;;;;;;5093580;28;20031;-62
2022/01/27 07:10:53;;;;;;;;;;;16.90;44.00;;;;;;5093603;28;19912;-62
2022/01/27 07:13:18;;;;;;;;;;;16.90;44.00;;;;;;5092313;28;19912;-62
2022/01/27 07:15:44;;;;;;;;;;;16.90;44.00;;;;;;5093447;28;20010;-63
2022/01/27 07:18:09;;;;;;;;;;;16.90;44.00;;;;;;5093324;28;20364;-62
2022/01/27 07:20:36;;;;;;;;;;;16.90;44.00;;;;;;5092999;28;19920;-62
2022/01/27 07:23:01;;;;;;;;;;;16.90;44.00;;;;;;5092178;28;20283;-62
2022/01/27 07:25:27;;;;;;;;;;;16.90;44.00;;;;;;5092883;28;20016;-62
2022/01/27 07:27:52;;;;;;;;;;;16.90;44.00;;;;;;5093119;28;19908;-62
2022/01/27 07:30:18;;;;;;;;;;;16.90;44.00;;;;;;5091775;28;20314;-64
2022/01/27 07:32:43;;;;;;;;;;;16.90;44.00;;;;;;5126088;27;19912;-64
2022/01/27 07:35:09;;;;;;;;;;;16.80;44.00;;;;;;5093018;28;19961;-63
2022/01/27 07:37:34;;;;;;;;;;;16.80;44.00;;;;;;5091922;28;19912;-63
2022/01/27 07:40:00;;;;;;;;;;;16.90;44.10;;;;;;5092577;28;19919;-63
2022/01/27 07:42:25;;;;;;;;;;;16.80;43.90;;;;;;5125640;27;19908;-62
2022/01/27 07:44:50;;;;;;;;;;;16.90;44.10;;;;;;5092718;28;19957;-62
2022/01/27 07:47:16;;;;;;;;;;;16.90;44.10;;;;;;5092689;28;20289;-62
2022/01/27 07:49:41;;;;;;;;;;;16.90;44.00;;;;;;5092682;28;19908;-63
2022/01/27 07:52:07;;;;;;;;;;;16.90;44.10;;;;;;5092839;28;20375;-63
2022/01/27 07:54:32;;;;;;;;;;;16.90;44.10;;;;;;5092193;28;20284;-63
2022/01/27 07:56:58;;;;;;;;;;;16.90;44.10;;;;;;5091425;28;20008;-63
2022/01/27 07:59:23;;;;;;;;;;;16.90;44.10;;;;;;5092818;28;19912;-63
2022/01/27 08:01:48;;;;;;;;;;;16.90;44.00;;;;;;5092409;28;19918;-62
2022/01/27 08:04:14;;;;;;;;;;;16.90;44.00;;;;;;5092475;28;20002;-62
2022/01/27 08:06:39;;;;;;;;;;;16.90;44.10;;;;;;5091294;28;19919;-62
2022/01/27 08:09:05;;;;;;;;;;;16.90;44.10;;;;;;5092153;28;19993;-62
2022/01/27 08:11:30;;;;;;;;;;;16.90;44.10;;;;;;5092388;28;19908;-62
2022/01/27 08:13:56;;;;;;;;;;;16.90;44.10;;;;;;5092422;28;20372;-64
2022/01/27 08:16:21;;;;;;;;;;;16.90;44.10;;;;;;5092358;28;19908;-62
2022/01/27 08:18:47;;;;;;;;;;;16.90;44.10;;;;;;5092152;28;19966;-62
2022/01/27 08:21:12;;;;;;;;;;;16.90;44.10;;;;;;5092506;28;20015;-62
2022/01/27 08:23:40;;;;;;;;;;;16.90;44.10;;;;;;5091860;28;19943;-61
2022/01/27 08:26:10;;;;;;;;;;;16.90;44.10;;;;;;5092131;28;21365;-62
2022/01/27 08:28:45;;;;;;;;;;;16.90;44.20;;;;;;5124844;27;20360;-62
2022/01/27 08:31:13;;;;;;;;;;;16.80;44.10;;;;;;5075409;28;19912;-62
2022/01/27 08:33:40;;;;;;;;;;;16.90;44.20;;;;;;5125153;27;20419;-62
2022/01/27 08:36:05;;;;;;;;;;;16.80;44.10;;;;;;5092167;28;19991;-62
2022/01/27 08:38:31;;;;;;;;;;;16.90;44.20;;;;;;5091671;28;20007;-62
2022/01/27 08:40:59;;;;;;;;;;;16.90;44.20;;;;;;5092088;28;19943;-62
2022/01/27 08:43:24;;;;;;;;;;;16.90;44.20;;;;;;5074588;28;19962;-62
2022/01/27 08:45:50;;;;;;;;;;;16.90;44.20;;;;;;5092235;28;19916;-64
2022/01/27 08:48:18;;;;;;;;;;;16.90;44.20;;;;;;5092152;28;19908;-63
2022/01/27 08:50:50;;;;;;;;;;;16.90;44.20;;;;;;5092253;28;19912;-64
2022/01/27 08:53:16;;;;;;;;;;;16.90;44.20;;;;;;5099067;28;19909;-64
2022/01/27 08:55:44;;;;;;;;;;;16.90;44.20;;;;;;5090296;28;19915;-63
2022/01/27 08:58:12;;;;;;;;;;;16.90;44.20;;;;;;5090749;28;19912;-63
2022/01/27 09:00:38;;;;;;;;;;;16.90;44.20;;;;;;5091782;28;19931;-62
2022/01/27 09:03:04;;;;;;;;;;;16.90;44.30;;;;;;5091845;28;19912;-62
2022/01/27 09:05:29;;;;;;;;;;;16.90;44.30;;;;;;5092005;28;19909;-62
2022/01/27 09:07:57;;;;;;;;;;;16.90;44.20;;;;;;5092052;28;19908;-62
2022/01/27 09:10:31;;;;;;;;;;;16.90;44.30;;;;;;5091455;28;19915;-62
2022/01/27 09:13:00;;;;;;;;;;;16.90;44.30;;;;;;5098691;28;19997;-62
2022/01/27 09:15:26;;;;;;;;;;;16.80;44.20;;;;;;5091790;28;19908;-63
2022/01/27 09:17:52;;;;;;;;;;;16.90;44.30;;;;;;5090533;28;19912;-63
2022/01/27 09:20:17;;;;;;;;;;;16.90;44.40;;;;;;5107223;28;20425;-64
2022/01/27 09:22:43;;;;;;;;;;;16.90;44.40;;;;;;5091908;28;20003;-63
2022/01/27 09:25:17;;;;;;;;;;;16.90;44.40;;;;;;5091319;28;19923;-63
2022/01/27 09:27:43;;;;;;;;;;;16.90;44.30;;;;;;5098564;28;19912;-63
2022/01/27 09:30:09;;;;;;;;;;;16.90;44.40;;;;;;5091695;28;19919;-63
2022/01/27 09:32:35;;;;;;;;;;;16.80;44.30;;;;;;5091948;28;20242;-64
2022/01/27 09:35:00;;;;;;;;;;;16.80;44.40;;;;;;5091654;28;19965;-64
2022/01/27 09:37:26;;;;;;;;;;;16.80;44.50;;;;;;5091615;28;20345;-64
2022/01/27 09:39:51;;;;;;;;;;;16.80;44.50;;;;;;5091078;28;19912;-64
2022/01/27 09:42:17;;;;;;;;;;;16.80;44.40;;;;;;5093693;28;19912;-64
2022/01/27 09:44:44;;;;;;;;;;;16.90;44.50;;;;;;5128126;27;19967;-64
2022/01/27 09:47:13;;;;;;;;;;;16.90;44.50;;;;;;5095191;28;19928;-64
2022/01/27 09:50:07;;;;;;;;;;;16.90;44.50;;;;;;5077201;28;19912;-64
2022/01/27 09:52:27;;;;;;;;;;;16.90;44.50;;;;;;5096262;27;19916;-64
2022/01/27 09:54:52;;;;;;;;;;;16.90;44.50;;;;;;5094365;28;19908;-64
2022/01/27 09:57:18;;;;;;;;;;;16.90;44.50;;;;;;5094952;28;19913;-63
2022/01/27 09:59:44;;;;;;;;;;;16.90;44.40;;;;;;5094679;28;20238;-63
2022/01/27 10:02:10;;;;;;;;;;;16.90;44.50;;;;;;5093558;28;19908;-63
2022/01/27 10:04:41;;;;;;;;;;;16.90;44.50;;;;;;5093458;28;20327;-64
2022/01/27 10:07:07;;;;;;;;;;;16.90;44.50;;;;;;5094942;28;19915;-64
2022/01/27 10:09:33;;;;;;;;;;;16.90;44.50;;;;;;5094186;28;20287;-63
2022/01/27 10:12:00;;;;;;;;;;;16.90;44.50;;;;;;5094856;28;20498;-63
2022/01/27 10:14:27;;;;;;;;;;;16.90;44.60;;;;;;5093318;28;20007;-63
2022/01/27 10:16:54;;;;;;;;;;;16.90;44.50;;;;;;5094515;28;19953;-63
2022/01/27 10:19:19;;;;;;;;;;;16.90;44.50;;;;;;5094297;28;19920;-63
2022/01/27 10:21:46;;;;;;;;;;;16.90;44.50;;;;;;5094595;28;19961;-63
2022/01/27 10:24:14;;;;;;;;;;;16.90;44.50;;;;;;5094166;28;19962;-64
2022/01/27 10:26:44;;;;;;;;;;;16.90;44.50;;;;;;5094476;28;20327;-64
2022/01/27 10:29:29;;;;;;;;;;;16.90;44.50;;;;;;5093165;28;19915;-64
2022/01/27 10:32:00;;;;;;;;;;;16.90;44.50;;;;;;5101157;28;19908;-63
2022/01/27 10:34:26;;;;;;;;;;;16.90;44.50;;;;;;5094119;28;20005;-63
2022/01/27 10:36:52;;;;;;;;;;;16.90;44.50;;;;;;5092908;28;19912;-63
2022/01/27 10:39:18;;;;;;;;;;;17.00;44.60;;;;;;5092451;28;20400;-63
2022/01/27 10:41:56;;;;;;;;;;;16.90;44.60;;;;;;5093068;28;19966;-63
2022/01/27 10:44:23;;;;;;;;;;;16.90;44.50;;;;;;5094069;28;20314;-63
2022/01/27 10:47:07;;;;;;;;;;;17.00;44.60;;;;;;5093949;28;19928;-63
2022/01/27 10:49:35;;;;;;;;;;;16.90;44.50;;;;;;5093931;28;20386;-63
2022/01/27 10:52:01;;;;;;;;;;;16.90;44.60;;;;;;5092397;28;19953;-63
2022/01/27 10:54:37;;;;;;;;;;;16.90;44.60;;;;;;5126156;27;19931;-63
2022/01/27 10:57:06;;;;;;;;;;;16.90;44.70;;;;;;5094112;28;19908;-64
2022/01/27 10:59:33;;;;;;;;;;;16.90;44.70;;;;;;5093805;28;19960;-64
2022/01/27 11:01:58;;;;;;;;;;;17.00;44.80;;;;;;5094101;28;19908;-63
2022/01/27 11:04:31;;;;;;;;;;;16.90;44.70;;;;;;5093736;28;19912;-64
2022/01/27 11:06:58;;;;;;;;;;;16.90;44.70;;;;;;5093619;28;19914;-63
2022/01/27 11:09:24;;;;;;;;;;;16.90;44.70;;;;;;5092007;28;19916;-63
2022/01/27 11:11:50;;;;;;;;;;;16.90;44.70;;;;;;5092320;28;19923;-63
2022/01/27 11:14:15;;;;;;;;;;;16.90;44.70;;;;;;5093558;28;19915;-63
2022/01/27 11:16:43;;;;;;;;;;;16.90;44.80;;;;;;5075301;28;20288;-63
2022/01/27 11:21:43;;;;;;;;;;;16.90;44.80;;;;;;5093694;28;20390;-63
2022/01/27 11:24:15;;;;;;;;;;;16.90;44.80;;;;;;5092888;28;19920;-63
2022/01/27 11:26:43;;;;;;;;;;;17.00;44.90;;;;;;5100106;28;20433;-63
2022/01/27 11:29:08;;;;;;;;;;;17.00;44.80;;;;;;5093459;28;20408;-63
2022/01/27 11:32:03;;;;;;;;;;;17.00;44.90;;;;;;5091990;28;20015;-63
2022/01/27 11:34:47;;;;;;;;;;;17.00;44.90;;;;;;5055781;28;19916;-63
2022/01/27 11:37:15;;;;;;;;;;;17.00;44.80;;;;;;5091738;28;19908;-63
2022/01/27 11:39:48;;;;;;;;;;;17.00;44.80;;;;;;5125358;27;19916;-64
2022/01/27 11:42:13;;;;;;;;;;;17.00;44.80;;;;;;5093061;28;19912;-64
2022/01/27 11:44:42;;;;;;;;;;;17.00;44.90;;;;;;5091663;28;19919;-62
2022/01/27 11:47:12;;;;;;;;;;;17.00;44.90;;;;;;5091547;28;20444;-63
2022/01/27 11:50:00;;;;;;;;;;;17.00;44.90;;;;;;5092740;28;20421;-63
2022/01/27 11:52:27;;;;;;;;;;;17.00;44.90;;;;;;5091581;28;20330;-63
2022/01/27 11:55:16;;;;;;;;;;;17.00;44.90;;;;;;5090819;28;19912;-63
2022/01/27 11:57:45;;;;;;;;;;;17.00;44.90;;;;;;5072704;28;19943;-62
2022/01/27 12:00:17;;;;;;;;;;;17.00;44.90;;;;;;5092377;28;20372;-63
2022/01/27 12:03:10;;;;;;;;;;;17.00;44.90;;;;;;5091155;28;20436;-64
2022/01/27 12:05:39;;;;;;;;;;;17.00;44.90;;;;;;5089696;28;20433;-64
2022/01/27 12:08:13;;;;;;;;;;;17.00;44.80;;;;;;5092524;28;19915;-64
2022/01/27 12:10:40;;;;;;;;;;;17.00;44.80;;;;;;5091962;28;20324;-64
2022/01/27 12:13:25;;;;;;;;;;;17.00;44.80;;;;;;5074209;28;19912;-64
2022/01/27 12:16:09;;;;;;;;;;;17.10;44.80;;;;;;5092295;28;20273;-64
2022/01/27 12:18:38;;;;;;;;;;;17.10;44.80;;;;;;5092558;28;19934;-64
2022/01/27 12:21:21;;;;;;;;;;;17.10;44.80;;;;;;5092252;28;19968;-63
2022/01/27 12:24:06;;;;;;;;;;;17.20;44.80;;;;;;5091865;28;20674;-63
2022/01/27 12:26:46;;;;;;;;;;;17.20;44.80;;;;;;5092327;28;19912;-63
2022/01/27 12:29:12;;;;;;;;;;;17.20;44.80;;;;;;5092120;28;20367;-63
2022/01/27 12:31:38;;;;;;;;;;;17.20;44.70;;;;;;5090999;28;19908;-63
2022/01/27 12:34:04;;;;;;;;;;;17.20;44.70;;;;;;5092073;28;19912;-63
2022/01/27 12:36:29;;;;;;;;;;;17.20;44.80;;;;;;5092137;28;20373;-63
2022/01/27 12:38:55;;;;;;;;;;;17.20;44.80;;;;;;5091606;28;20325;-63
2022/01/27 12:41:20;;;;;;;;;;;17.20;44.80;;;;;;5090835;28;20330;-63
2022/01/27 12:43:46;;;;;;;;;;;17.20;44.80;;;;;;5090968;28;20378;-63
2022/01/27 12:46:12;;;;;;;;;;;17.20;44.80;;;;;;5092162;28;19915;-63
2022/01/27 12:48:43;;;;;;;;;;;17.20;44.80;;;;;;5091988;28;19908;-63
2022/01/27 12:51:08;;;;;;;;;;;17.20;44.80;;;;;;5090795;28;19912;-64
2022/01/27 12:53:35;;;;;;;;;;;17.20;44.80;;;;;;5091702;28;19908;-64
2022/01/27 12:56:05;;;;;;;;;;;17.20;44.80;;;;;;5092139;28;19961;-64
2022/01/27 12:58:32;;;;;;;;;;;17.20;44.90;;;;;;5091745;28;20368;-64
2022/01/27 13:00:57;;;;;;;;;;;17.20;44.90;;;;;;5092108;28;19908;-64
2022/01/27 13:03:23;;;;;;;;;;;17.20;45.00;;;;;;5091973;28;20391;-64
2022/01/27 13:05:49;;;;;;;;;;;17.20;45.00;;;;;;5124458;28;19912;-63
2022/01/27 13:08:32;;;;;;;;;;;17.20;45.00;;;;;;5092036;28;19908;-63
2022/01/27 13:11:02;;;;;;;;;;;17.20;45.00;;;;;;5090775;28;20254;-63
2022/01/27 13:13:33;;;;;;;;;;;17.30;45.10;;;;;;5074204;28;19961;-63
2022/01/27 13:15:59;;;;;;;;;;;17.20;45.00;;;;;;5100185;28;20367;-63
2022/01/27 13:18:31;;;;;;;;;;;17.20;45.00;;;;;;5094820;28;19916;-63
2022/01/27 13:20:58;;;;;;;;;;;17.20;45.00;;;;;;5096371;28;20379;-63
2022/01/27 13:23:36;;;;;;;;;;;17.20;45.00;;;;;;5095749;28;19916;-63
2022/01/27 13:26:06;;;;;;;;;;;17.20;45.10;;;;;;5095786;28;19910;-63
2022/01/27 13:28:34;;;;;;;;;;;17.20;45.10;;;;;;5101049;28;20345;-63
2022/01/27 13:31:00;;;;;;;;;;;17.20;45.10;;;;;;5094366;28;19908;-64
2022/01/27 13:33:26;;;;;;;;;;;17.20;45.10;;;;;;5094150;28;20462;-64
2022/01/27 13:35:52;;;;;;;;;;;17.20;45.10;;;;;;5095378;28;19969;-63
2022/01/27 13:38:26;;;;;;;;;;;17.20;45.10;;;;;;5095659;28;19912;-63
2022/01/27 13:41:20;;;;;;;;;;;17.20;45.10;;;;;;5100846;28;19909;-63
2022/01/27 13:43:47;;;;;;;;;;;17.20;45.20;;;;;;5094189;28;20010;-63
2022/01/27 13:46:31;;;;;;;;;;;17.20;45.20;;;;;;5094221;28;19915;-63
2022/01/27 13:49:02;;;;;;;;;;;17.20;45.20;;;;;;5095197;28;19956;-63
2022/01/27 13:51:28;;;;;;;;;;;17.20;45.20;;;;;;5094139;28;20359;-63
2022/01/27 13:54:03;;;;;;;;;;;17.20;45.20;;;;;;5094853;28;19912;-63
2022/01/27 13:56:41;;;;;;;;;;;17.20;45.20;;;;;;5093826;28;19955;-63
2022/01/27 13:59:12;;;;;;;;;;;17.20;45.20;;;;;;5095366;28;19963;-63
2022/01/27 14:01:37;;;;;;;;;;;17.20;45.20;;;;;;5095095;28;20292;-63
2022/01/27 14:04:03;;;;;;;;;;;17.20;45.20;;;;;;5094877;28;19908;-64
2022/01/27 14:06:29;;;;;;;;;;;17.20;45.20;;;;;;5095031;28;19912;-64
2022/01/27 14:08:57;;;;;;;;;;;17.20;45.20;;;;;;5094262;28;19908;-63
2022/01/27 14:11:33;;;;;;;;;;;17.20;45.20;;;;;;5093527;28;19912;-63
2022/01/27 14:14:00;;;;;;;;;;;17.20;45.20;;;;;;5093418;28;20049;-63
2022/01/27 14:16:26;;;;;;;;;;;17.20;45.30;;;;;;5094898;28;19915;-63
2022/01/27 14:18:51;;;;;;;;;;;17.20;45.20;;;;;;5094395;28;19912;-63
2022/01/27 14:21:22;;;;;;;;;;;17.20;45.30;;;;;;5093870;28;19934;-63
2022/01/27 14:24:06;;;;;;;;;;;17.20;45.30;;;;;;5094260;28;19916;-63
2022/01/27 14:28:58;;;;;;;;;;;17.30;45.20;;;;;;5093900;28;19934;-64
2022/01/27 14:31:24;;;;;;;;;;;17.30;45.20;;;;;;5094434;28;19916;-64
2022/01/27 14:33:49;;;;;;;;;;;17.30;45.20;;;;;;5093210;28;19908;-64
2022/01/27 14:36:15;;;;;;;;;;;17.30;45.30;;;;;;5094294;28;19908;-64
2022/01/27 14:38:40;;;;;;;;;;;17.30;45.30;;;;;;5093764;28;20010;-63
2022/01/27 14:41:06;;;;;;;;;;;17.30;45.30;;;;;;5094291;28;19908;-63
2022/01/27 14:43:32;;;;;;;;;;;17.30;45.30;;;;;;5094175;28;19958;-63
2022/01/27 14:45:58;;;;;;;;;;;17.30;45.20;;;;;;5092806;28;19956;-63
2022/01/27 14:48:24;;;;;;;;;;;17.30;45.30;;;;;;5076078;28;19916;-63
2022/01/27 14:50:50;;;;;;;;;;;17.20;45.30;;;;;;5092554;28;19953;-63
2022/01/27 14:53:16;;;;;;;;;;;17.20;45.30;;;;;;5092823;28;20426;-63
2022/01/27 14:55:41;;;;;;;;;;;17.20;45.30;;;;;;5093390;28;19912;-63
2022/01/27 14:58:07;;;;;;;;;;;17.20;45.20;;;;;;5092405;28;19912;-63
2022/01/27 15:00:32;;;;;;;;;;;17.20;45.20;;;;;;5093676;28;19999;-63
2022/01/27 15:02:58;;;;;;;;;;;17.30;45.30;;;;;;5093770;28;20246;-63
2022/01/27 15:05:23;;;;;;;;;;;17.30;45.30;;;;;;5093600;28;19963;-63
2022/01/27 15:07:50;;;;;;;;;;;17.30;45.30;;;;;;5093814;28;19965;-63
2022/01/27 15:10:16;;;;;;;;;;;17.30;45.30;;;;;;5093326;28;19998;-63
2022/01/27 15:12:42;;;;;;;;;;;17.30;45.30;;;;;;5092516;28;20284;-63